createdAt,value
2022-09-01T00:02:55.912Z,102093.84
2022-09-01T00:05:58.622Z,102103.34
2022-09-01T00:09:04.440Z,102093.94
2022-09-01T00:12:09.508Z,102097.72
2022-09-01T00:15:14.038Z,102096.31
2022-09-01T00:18:16.681Z,102091.63
2022-09-01T00:21:21.687Z,102105.28
2022-09-01T00:24:25.992Z,102095.69
2022-09-01T00:27:30.631Z,102090.78
2022-09-01T00:30:35.102Z,102092.13
2022-09-01T00:33:38.743Z,102094.06
2022-09-01T00:36:41.404Z,102091.50
2022-09-01T00:39:44.009Z,102087.38
2022-09-01T00:42:48.895Z,102089.34
2022-09-01T00:45:52.869Z,102083.63
2022-09-01T00:49:01.967Z,102083.22
2022-09-01T00:52:09.133Z,102079.50
2022-09-01T00:55:15.913Z,102084.94
2022-09-01T00:58:19.612Z,102087.97
2022-09-01T01:01:24.267Z,102083.22
2022-09-01T01:04:26.953Z,102079.78
2022-09-01T01:07:29.941Z,102074.59
2022-09-01T01:10:35.830Z,102075.38
2022-09-01T01:13:51.035Z,102075.66
2022-09-01T01:16:55.276Z,102075.44
2022-09-01T01:20:17.075Z,102076.13
2022-09-01T01:23:28.257Z,102077.03
2022-09-01T01:26:32.229Z,102079.50
2022-09-01T01:29:37.118Z,102078.59
2022-09-01T01:32:43.060Z,102082.09
2022-09-01T01:35:47.032Z,102081.97
2022-09-01T01:38:50.528Z,102079.59
2022-09-01T01:41:58.704Z,102082.97
2022-09-01T01:45:01.276Z,102084.25
2022-09-01T01:48:08.535Z,102082.28
2022-09-01T01:51:13.865Z,102083.22
2022-09-01T01:54:19.903Z,102084.19
2022-09-01T01:57:23.860Z,102088.66
2022-09-01T02:00:30.971Z,102080.31
2022-09-01T02:03:38.520Z,102085.03
2022-09-01T02:06:44.954Z,102080.84
2022-09-01T02:09:48.212Z,102084.41
2022-09-01T02:12:52.445Z,102084.38
2022-09-01T02:15:56.938Z,102084.38
2022-09-01T02:19:01.193Z,102087.69
2022-09-01T02:22:03.815Z,102079.69
2022-09-01T02:25:07.027Z,102080.63
2022-09-01T02:28:15.880Z,102075.66
2022-09-01T02:31:20.936Z,102079.34
2022-09-01T02:34:25.849Z,102073.16
2022-09-01T02:37:29.725Z,102073.09
2022-09-01T02:40:33.387Z,102069.81
2022-09-01T02:43:38.618Z,102067.00
2022-09-01T02:46:42.977Z,102069.81
2022-09-01T02:49:46.710Z,102068.69
2022-09-01T02:52:49.944Z,102070.41
2022-09-01T02:55:52.949Z,102068.63
2022-09-01T02:58:56.845Z,102064.97
2022-09-01T03:01:59.578Z,102067.69
2022-09-01T03:05:02.221Z,102070.31
2022-09-01T03:08:10.374Z,102066.59
2022-09-01T03:11:13.515Z,102064.97
2022-09-01T03:14:17.996Z,102063.69
2022-09-01T03:17:21.597Z,102075.88
2022-09-01T03:20:24.393Z,102076.47
2022-09-01T03:23:28.061Z,102075.25
2022-09-01T03:26:31.842Z,102069.53
2022-09-01T03:29:36.964Z,102075.88
2022-09-01T03:32:39.799Z,102075.38
2022-09-01T03:35:42.588Z,102073.72
2022-09-01T03:38:46.906Z,102072.78
2022-09-01T03:41:49.730Z,102072.63
2022-09-01T03:44:53.630Z,102058.34
2022-09-01T03:47:57.153Z,102063.06
2022-09-01T03:51:02.727Z,102070.13
2022-09-01T03:54:05.747Z,102056.91
2022-09-01T03:57:10.031Z,102063.06
2022-09-01T04:00:20.632Z,102060.84
2022-09-01T04:03:29.119Z,102061.16
2022-09-01T04:06:33.685Z,102068.53
2022-09-01T04:09:36.569Z,102065.06
2022-09-01T04:12:39.677Z,102062.72
2022-09-01T04:15:43.778Z,102067.56
2022-09-01T04:18:48.953Z,102072.22
2022-09-01T04:21:52.199Z,102073.84
2022-09-01T04:24:54.848Z,102061.75
2022-09-01T04:27:58.686Z,102067.84
2022-09-01T04:31:05.876Z,102068.84
2022-09-01T04:34:13.162Z,102070.78
2022-09-01T04:37:19.077Z,102064.59
2022-09-01T04:40:23.769Z,102066.31
2022-09-01T04:43:30.146Z,102063.34
2022-09-01T04:46:36.593Z,102061.97
2022-09-01T04:49:39.175Z,102072.88
2022-09-01T04:52:43.023Z,102067.34
2022-09-01T04:55:47.078Z,102075.34
2022-09-01T04:58:54.034Z,102066.97
2022-09-01T05:02:00.643Z,102070.44
2022-09-01T05:05:03.660Z,102067.75
2022-09-01T05:08:06.863Z,102074.03
2022-09-01T05:11:09.477Z,102078.09
2022-09-01T05:14:12.489Z,102080.09
2022-09-01T05:17:18.647Z,102073.81
2022-09-01T05:20:21.701Z,102077.56
2022-09-01T05:23:26.536Z,102074.81
2022-09-01T05:26:31.646Z,102081.53
2022-09-01T05:29:36.156Z,102074.19
2022-09-01T05:32:40.387Z,102072.16
2022-09-01T05:35:55.399Z,102076.47
2022-09-01T05:38:59.045Z,102080.97
2022-09-01T05:42:01.923Z,102077.09
2022-09-01T05:45:05.041Z,102080.78
2022-09-01T05:48:09.403Z,102085.50
2022-09-01T05:51:40.379Z,102086.91
2022-09-01T05:54:37.971Z,102082.97
2022-09-01T05:57:40.806Z,102090.63
2022-09-01T06:00:44.070Z,102089.34
2022-09-01T06:03:49.358Z,102097.84
2022-09-01T06:07:10.228Z,102088.78
2022-09-01T06:10:16.106Z,102095.59
2022-09-01T06:13:21.822Z,102087.16
2022-09-01T06:16:29.047Z,102091.25
2022-09-01T06:19:36.998Z,102091.41
2022-09-01T06:22:40.992Z,102088.41
2022-09-01T06:25:46.810Z,102089.16
2022-09-01T06:28:50.615Z,102087.78
2022-09-01T06:31:53.217Z,102092.22
2022-09-01T06:35:00.359Z,102097.75
2022-09-01T06:38:03.050Z,102094.56
2022-09-01T06:41:12.835Z,102099.09
2022-09-01T06:44:15.451Z,102104.75
2022-09-01T06:47:19.385Z,102104.00
2022-09-01T06:53:51.106Z,102097.16
2022-09-01T06:56:53.899Z,102098.94
2022-09-01T06:59:56.960Z,102100.31
2022-09-01T07:02:59.818Z,102106.69
2022-09-01T07:06:08.903Z,102106.88
2022-09-01T07:09:21.541Z,102105.50
2022-09-01T07:12:25.742Z,102106.91
2022-09-01T07:18:58.696Z,102098.69
2022-09-01T07:22:35.230Z,102099.97
2022-09-01T07:25:35.721Z,102107.06
2022-09-01T07:28:50.652Z,102103.94
2022-09-01T07:35:22.303Z,102107.38
2022-09-01T07:45:32.391Z,102116.59
2022-09-01T07:48:36.482Z,102121.63
2022-09-01T07:51:59.626Z,102118.22
2022-09-01T07:55:03.922Z,102124.50
2022-09-01T07:58:06.517Z,102129.91
2022-09-01T08:01:11.281Z,102114.91
2022-09-01T08:04:25.557Z,102118.50
2022-09-01T08:07:28.220Z,102128.78
2022-09-01T08:10:32.193Z,102129.16
2022-09-01T08:13:41.189Z,102129.34
2022-09-01T08:16:52.238Z,102123.78
2022-09-01T08:19:56.393Z,102127.06
2022-09-01T08:22:59.008Z,102123.75
2022-09-01T08:26:07.160Z,102128.34
2022-09-01T08:29:09.931Z,102130.44
2022-09-01T08:32:13.063Z,102132.50
2022-09-01T08:35:16.202Z,102133.13
2022-09-01T08:38:19.488Z,102128.09
2022-09-01T08:41:35.176Z,102135.69
2022-09-01T08:44:45.815Z,102133.03
2022-09-01T08:48:28.735Z,102121.03
2022-09-01T08:51:20.755Z,102118.13
2022-09-01T08:54:29.709Z,102125.63
2022-09-01T08:57:39.413Z,102122.72
2022-09-01T09:00:51.411Z,102124.28
2022-09-01T09:04:09.172Z,102119.91
2022-09-01T09:07:18.366Z,102122.19
2022-09-01T09:10:25.146Z,102125.94
2022-09-01T09:13:39.579Z,102112.69
2022-09-01T09:16:43.874Z,102116.22
2022-09-01T09:19:46.933Z,102108.22
2022-09-01T09:22:49.931Z,102107.34
2022-09-01T09:25:52.548Z,102102.66
2022-09-01T09:28:56.725Z,102110.03
2022-09-01T09:32:05.557Z,102111.53
2022-09-01T09:35:21.827Z,102111.44
2022-09-01T09:38:30.256Z,102106.56
2022-09-01T09:41:32.880Z,102098.56
2022-09-01T09:44:43.782Z,102094.00
2022-09-01T09:47:47.707Z,102101.31
2022-09-01T09:50:50.597Z,102086.94
2022-09-01T09:53:55.580Z,102089.03
2022-09-01T09:57:12.583Z,102085.22
2022-09-01T10:00:24.016Z,102088.88
2022-09-01T10:03:37.428Z,102084.22
2022-09-01T10:06:45.195Z,102076.41
2022-09-01T10:09:49.128Z,102062.00
2022-09-01T10:12:53.836Z,102067.94
2022-09-01T10:15:59.811Z,102068.41
2022-09-01T10:19:03.284Z,102072.03
2022-09-01T10:22:06.593Z,102064.84
2022-09-01T10:25:14.835Z,102055.28
2022-09-01T10:28:24.277Z,102059.59
2022-09-01T10:31:32.856Z,102062.34
2022-09-01T10:34:41.969Z,102059.38
2022-09-01T10:37:44.892Z,102051.41
2022-09-01T10:41:07.008Z,102048.25
2022-09-01T10:44:11.667Z,102056.91
2022-09-01T10:47:29.557Z,102044.38
2022-09-01T10:50:36.563Z,102050.69
2022-09-01T10:53:40.708Z,102049.72
2022-09-01T10:56:51.747Z,102047.03
2022-09-01T10:59:57.797Z,102045.47
2022-09-01T11:03:47.841Z,102044.13
2022-09-01T11:07:29.686Z,102053.91
2022-09-01T11:10:42.080Z,102044.50
2022-09-01T11:13:50.137Z,102038.03
2022-09-01T11:17:16.203Z,102043.88
2022-09-01T11:20:27.379Z,102038.88
2022-09-01T11:23:31.736Z,102038.75
2022-09-01T11:26:48.842Z,102042.31
2022-09-01T11:29:55.581Z,102050.22
2022-09-01T11:33:03.072Z,102043.69
2022-09-01T11:36:15.260Z,102032.31
2022-09-01T11:39:30.901Z,102039.84
2022-09-01T11:42:40.513Z,102035.19
2022-09-01T11:46:03.482Z,102045.50
2022-09-01T11:49:09.790Z,102040.22
2022-09-01T11:52:16.958Z,102033.25
2022-09-01T11:55:30.171Z,102034.50
2022-09-01T11:58:39.129Z,102031.47
2022-09-01T12:01:42.130Z,102029.19
2022-09-01T12:04:44.760Z,102017.75
2022-09-01T12:07:48.926Z,102036.41
2022-09-01T12:10:51.644Z,102026.69
2022-09-01T12:14:00.789Z,102028.53
2022-09-01T12:17:06.478Z,102015.03
2022-09-01T12:20:29.699Z,102021.25
2022-09-01T12:23:36.171Z,102017.91
2022-09-01T12:26:40.484Z,102004.34
2022-09-01T12:29:43.802Z,102005.34
2022-09-01T12:32:47.228Z,102010.47
2022-09-01T12:35:49.893Z,102001.25
2022-09-01T12:38:55.335Z,102000.09
2022-09-01T12:42:14.868Z,102005.53
2022-09-01T12:45:41.119Z,102003.31
2022-09-01T12:48:44.723Z,102003.56
2022-09-01T12:51:48.565Z,102005.59
2022-09-01T12:54:54.371Z,101992.34
2022-09-01T12:57:58.773Z,101989.75
2022-09-01T13:01:05.740Z,101993.31
2022-09-01T13:04:25.113Z,101992.59
2022-09-01T13:07:27.680Z,101990.94
2022-09-01T13:10:35.617Z,101997.38
2022-09-01T13:13:38.208Z,101982.59
2022-09-01T13:16:40.835Z,101981.53
2022-09-01T13:19:43.540Z,101986.16
2022-09-01T13:22:46.883Z,101987.00
2022-09-01T13:25:51.381Z,101985.72
2022-09-01T13:28:54.188Z,101977.81
2022-09-01T13:35:22.119Z,101986.13
2022-09-01T13:38:24.747Z,101975.06
2022-09-01T13:41:29.094Z,101977.50
2022-09-01T13:44:31.678Z,101966.59
2022-09-01T13:47:35.459Z,101978.47
2022-09-01T13:51:16.638Z,101966.81
2022-09-01T13:54:21.317Z,101970.34
2022-09-01T13:57:25.685Z,101966.72
2022-09-01T14:00:31.990Z,101963.38
2022-09-01T14:03:34.611Z,101962.19
2022-09-01T14:06:41.181Z,101954.06
2022-09-01T14:09:43.753Z,101946.00
2022-09-01T14:12:47.890Z,101946.19
2022-09-01T14:15:53.297Z,101943.13
2022-09-01T14:18:55.958Z,101943.66
2022-09-01T14:21:58.538Z,101937.03
2022-09-01T14:25:02.101Z,101949.59
2022-09-01T14:28:06.469Z,101945.16
2022-09-01T14:31:10.261Z,101945.72
2022-09-01T14:34:12.943Z,101941.91
2022-09-01T14:37:15.719Z,101941.84
2022-09-01T14:40:20.142Z,101938.38
2022-09-01T14:43:25.426Z,101932.97
2022-09-01T14:46:30.395Z,101929.13
2022-09-01T14:49:35.822Z,101933.16
2022-09-01T14:52:38.920Z,101925.09
2022-09-01T14:55:43.986Z,101921.75
2022-09-01T14:58:48.542Z,101927.63
2022-09-01T15:01:51.159Z,101915.00
2022-09-01T15:04:53.874Z,101912.34
2022-09-01T15:07:56.681Z,101897.84
2022-09-01T15:11:01.261Z,101907.16
2022-09-01T15:14:05.461Z,101895.06
2022-09-01T15:17:09.009Z,101899.03
2022-09-01T15:20:28.926Z,101891.75
2022-09-01T15:23:31.626Z,101894.34
2022-09-01T15:26:34.830Z,101891.53
2022-09-01T15:29:46.161Z,101891.44
2022-09-01T15:32:50.858Z,101883.53
2022-09-01T15:35:53.847Z,101890.13
2022-09-01T15:38:58.637Z,101888.28
2022-09-01T15:42:01.943Z,101883.59
2022-09-01T15:45:09.666Z,101882.66
2022-09-01T15:48:12.233Z,101888.81
2022-09-01T15:51:30.910Z,101882.84
2022-09-01T15:54:38.619Z,101881.47
2022-09-01T15:57:41.193Z,101879.84
2022-09-01T16:00:45.449Z,101878.88
2022-09-01T16:03:48.131Z,101880.28
2022-09-01T16:06:52.567Z,101884.28
2022-09-01T16:09:57.917Z,101873.81
2022-09-01T16:13:01.458Z,101869.25
2022-09-01T16:16:14.669Z,101868.38
2022-09-01T16:19:29.827Z,101868.84
2022-09-01T16:22:36.724Z,101865.81
2022-09-01T16:25:39.340Z,101858.88
2022-09-01T16:28:45.441Z,101863.84
2022-09-01T16:31:56.293Z,101860.94
2022-09-01T16:34:59.138Z,101864.28
2022-09-01T16:38:12.209Z,101862.34
2022-09-01T16:41:36.203Z,101862.25
2022-09-01T16:44:51.065Z,101866.69
2022-09-01T16:48:05.282Z,101864.72
2022-09-01T16:51:14.853Z,101868.28
2022-09-01T16:54:26.072Z,101860.22
2022-09-01T16:57:41.214Z,101864.31
2022-09-01T17:00:52.600Z,101859.13
2022-09-01T17:04:14.542Z,101860.22
2022-09-01T17:07:26.411Z,101854.81
2022-09-01T17:10:41.746Z,101862.81
2022-09-01T17:13:47.473Z,101867.97
2022-09-01T17:16:51.081Z,101871.78
2022-09-01T17:19:55.613Z,101869.25
2022-09-01T17:23:00.494Z,101864.81
2022-09-01T17:26:07.364Z,101876.34
2022-09-01T17:29:24.525Z,101869.59
2022-09-01T17:32:52.729Z,101875.00
2022-09-01T17:36:11.291Z,101875.59
2022-09-01T17:39:29.780Z,101872.16
2022-09-01T17:42:36.542Z,101878.94
2022-09-01T17:45:51.337Z,101886.13
2022-09-01T17:48:58.987Z,101885.72
2022-09-01T17:52:14.532Z,101889.19
2022-09-01T17:55:37.383Z,101886.72
2022-09-01T17:58:49.966Z,101880.75
2022-09-01T18:02:02.610Z,101884.13
2022-09-01T18:05:11.714Z,101892.44
2022-09-01T18:08:30.598Z,101890.41
2022-09-01T18:11:40.149Z,101890.97
2022-09-01T18:14:53.048Z,101890.31
2022-09-01T18:18:05.213Z,101890.78
2022-09-01T18:21:11.441Z,101888.34
2022-09-01T18:24:19.477Z,101889.94
2022-09-01T18:27:24.989Z,101901.69
2022-09-01T18:30:52.105Z,101894.25
2022-09-01T18:34:09.903Z,101902.41
2022-09-01T18:37:20.055Z,101899.59
2022-09-01T18:40:30.908Z,101902.75
2022-09-01T18:43:37.550Z,101905.00
2022-09-01T18:46:49.478Z,101901.22
2022-09-01T18:50:04.025Z,101910.78
2022-09-01T18:53:18.998Z,101919.19
2022-09-01T18:56:37.636Z,101906.72
2022-09-01T18:59:54.733Z,101910.63
2022-09-01T19:03:09.899Z,101921.94
2022-09-01T19:06:26.862Z,101911.03
2022-09-01T19:09:33.166Z,101909.03
2022-09-01T19:12:44.361Z,101909.03
2022-09-01T19:15:56.223Z,101913.00
2022-09-01T19:19:08.250Z,101919.06
2022-09-01T19:22:17.288Z,101916.19
2022-09-01T19:25:36.516Z,101920.06
2022-09-01T19:28:44.939Z,101919.53
2022-09-01T19:31:50.919Z,101908.81
2022-09-01T19:34:57.563Z,101913.66
2022-09-01T19:38:00.181Z,101913.75
2022-09-01T19:41:10.722Z,101916.75
2022-09-01T19:44:27.981Z,101915.06
2022-09-01T19:47:38.191Z,101907.00
2022-09-01T19:50:47.721Z,101913.06
2022-09-01T19:53:58.069Z,101908.31
2022-09-01T19:57:05.793Z,101911.72
2022-09-01T20:00:14.250Z,101907.44
2022-09-01T20:03:23.079Z,101907.31
2022-09-01T20:06:33.414Z,101909.69
2022-09-01T20:09:42.034Z,101910.09
2022-09-01T20:12:51.356Z,101911.34
2022-09-01T20:16:04.151Z,101915.19
2022-09-01T20:19:11.918Z,101917.34
2022-09-01T20:22:23.716Z,101909.50
2022-09-01T20:25:38.339Z,101918.81
2022-09-01T20:28:48.619Z,101912.91
2022-09-01T20:31:56.411Z,101912.03
2022-09-01T20:35:04.621Z,101914.59
2022-09-01T20:38:35.397Z,101912.34
2022-09-01T20:41:45.379Z,101915.34
2022-09-01T20:44:53.600Z,101914.88
2022-09-01T20:47:59.151Z,101909.25
2022-09-01T20:51:08.583Z,101919.19
2022-09-01T20:54:25.363Z,101918.47
2022-09-01T20:57:36.734Z,101918.31
2022-09-01T21:00:49.728Z,101919.50
2022-09-01T21:04:04.124Z,101924.13
2022-09-01T21:07:14.714Z,101922.41
2022-09-01T21:10:25.217Z,101929.94
2022-09-01T21:13:45.766Z,101926.06
2022-09-01T21:16:58.485Z,101928.50
2022-09-01T21:20:11.879Z,101929.34
2022-09-01T21:23:16.104Z,101927.19
2022-09-01T21:26:18.832Z,101925.16
2022-09-01T21:29:33.051Z,101926.03
2022-09-01T21:32:36.254Z,101922.91
2022-09-01T21:35:40.241Z,101927.97
2022-09-01T21:38:43.378Z,101925.88
2022-09-01T21:41:46.729Z,101925.59
2022-09-01T21:44:49.713Z,101929.34
2022-09-01T21:47:53.282Z,101917.06
2022-09-01T21:50:57.257Z,101921.16
2022-09-01T21:53:59.854Z,101918.63
2022-09-01T21:57:02.453Z,101925.22
2022-09-01T22:00:07.244Z,101924.94
2022-09-01T22:03:11.233Z,101926.28
2022-09-01T22:06:15.252Z,101929.34
2022-09-01T22:09:21.181Z,101919.72
2022-09-01T22:12:24.465Z,101921.59
2022-09-01T22:15:27.561Z,101925.06
2022-09-01T22:18:30.312Z,101922.25
2022-09-01T22:21:34.595Z,101924.34
2022-09-01T22:24:37.218Z,101922.09
2022-09-01T22:27:40.005Z,101919.69
2022-09-01T22:30:46.877Z,101914.91
2022-09-01T22:33:49.937Z,101921.00
2022-09-01T22:36:53.913Z,101917.31
2022-09-01T22:39:56.580Z,101922.94
2022-09-01T22:42:59.181Z,101924.81
2022-09-01T22:46:01.864Z,101924.66
2022-09-01T22:49:04.756Z,101924.00
2022-09-01T22:52:08.743Z,101918.81
2022-09-01T22:55:11.718Z,101917.16
2022-09-01T22:58:15.145Z,101921.34
2022-09-01T23:01:21.500Z,101906.56
2022-09-01T23:04:24.901Z,101909.31
2022-09-01T23:07:28.978Z,101910.38
2022-09-01T23:10:32.615Z,101904.09
2022-09-01T23:13:36.380Z,101904.91
2022-09-01T23:16:39.152Z,101903.97
2022-09-01T23:19:41.832Z,101903.81
2022-09-01T23:22:46.578Z,101904.09
2022-09-01T23:25:52.970Z,101901.69
2022-09-01T23:28:56.600Z,101897.16
2022-09-01T23:31:59.298Z,101891.00
2022-09-01T23:35:02.235Z,101891.53
2022-09-01T23:38:06.159Z,101892.69
2022-09-01T23:41:13.825Z,101897.97
2022-09-01T23:44:16.724Z,101891.81
2022-09-01T23:47:19.583Z,101880.44
2022-09-01T23:50:22.183Z,101884.22
2022-09-01T23:53:29.010Z,101890.22
2022-09-01T23:56:31.871Z,101879.00
2022-09-01T23:59:34.523Z,101880.03
